Aérodrome :
LOGIN :

S'inscrire | Disclaimer

   EN    FR    IT 

 










Légende :    VFR   VFR Marginal   IFR   IFR Intensif   IFR Très Intensif
Visi : 
Plafond : 
>= 8 km
>= 3000ft
5 à 8 km
1000 à 3000 ft
1500m à 5 km
500 à 1000 ft
800 à 1500m
200 à 500 ft
< 800m
< 200 ft
Symboles :   Orages  Brouillard  Fortes neiges  Fortes précipitations  Vent > 20 kt
SIGMETs :   Divers  Orages  Givrage  Turbulence  Onde Orograph.  Cendres Volcan.







- Altitude de l'aérodrome : 788 ft
- Code IATA : DCM
- Voir les cartes d'approche


LFCK - Castres-Mazamet

DERNIER METAR :
  • 211230Z AUTO 08012KT 050V130 CAVOK 23/10 Q1012 NOSIG

METARs EXPIRÉS :
  • 211200Z AUTO 08010KT 040V110 CAVOK 23/11 Q1012 NOSIG
  • 211130Z AUTO 09012KT 070V140 CAVOK 22/09 Q1013 NOSIG
  • 211100Z AUTO 09010KT 050V150 CAVOK 23/11 Q1013 NOSIG
  • 211030Z AUTO 11008KT 060V160 CAVOK 22/12 Q1013 NOSIG
  • 211000Z AUTO 12008KT 060V150 9999 FEW047 BKN120 22/11 Q1013 NOSIG

TAF TAF LFCK
Valide du 21 à 12h jusqu'au 21 à 21h UTC


211100Z 2112/2121 11008KT CAVOK
TEMPO 2116/2119 12015G30KT 4000 -TSRA SCT035CB
Pas de NOTAMs connus pour ce terrain.



MET'MAP, la Météo Aéronautique d'un coup d'oeil ! - Copyright ORBIFLY Décembre 2007 - Disclaimer

ORBIFLY MET'MAP TEAM :

Programmation & Développement : Alexandra Zaïnal
Conception & Développement : Baudouin d'Aumeries
Co-Programmation & Développement : Marc-Olivier Méhu
Soutien technique & logistique : Manuel Goepfert

Contact : metmap@orbifly.com




SOURCES & CREDITS :

   NOAA